Pagrindinis puslapis
METAR-TAF:

METAR-TAF

Oro uostai :

Sibiu, Rumunija

platuma: 45-48N, ilguma: 024-09E, Aukštis: 443 m

Dabartinis oras

Ataskaita buvo paskelbta 17 minutes, ne 10:30 UTC
Vėjas 5 kt iš Šiaurės/Šiaurės Vakarų, svyruoja nuo Vakarų/Šiaurės Vakarų ir Šiaurės
Temperatūra 0°C
Drėgmė 100%
Slėgis 1021 hPa
Matomumas: 1900 m
sniegas

METAR: LRSB 311030Z AUTO 33005KT 300V360 1900 R27/1900N -SN FEW007/// M00/M00 Q1021

Laikas: 13:47 (10:47 UTC)

Prognozė

Ataskaita buvo paskelbta 5 valandos ir 47 minutes, ne 05:00 UTC
Prognozė galioja nuo 31 metu 06 UTC su 01 metu 06 UTC
Vėjas 4 kt nuo kintamojo kryptimis
Matomumas: 3000 m
Su prošvaistėmis ne aukštis 1500 ft
Apsiniaukę ne aukštis 3500 ft
sniegas, rūkana
Laikinai
nuo 31 metu 15 UTC su 31 metu 20 UTC
Matomumas: 1500 m
Su prošvaistėmis ne aukštis 500 ft
Su prošvaistėmis ne aukštis 2500 ft
sniegas
Tapsmas
nuo 31 metu 22 UTC su 31 metu 24 UTC
Matomumas 10 km arba daugiau

TAF: LRSB 310500Z 3106/0106 VRB04KT 3000 SN BR BKN015 OVC035 TEMPO 3115/3120 1500 +SN BKN005 BKN025 BECMG 3122/3124 9999 NSW

Orai ataskaitas ir orų prognozės (METAR, TAF).

turimą stotys yra geltonos ir raudonos taškus žemėlapyje.

Perkelti pele per norėdami pamatyti stoties vardą.

Tada spustelėkite, norėdami matyti oro stebėjimo ir prognozės.

Norėdami pakeisti žemėlapį: spustelėkite ant žalios mygtukų su juodo kryžiaus žemyn,; žalią mygtuką su brūkšneliu, jei norite nutolinti; arba žalių rodyklių gretimoms žemėlapius.


METAR-TAF: